Time;durP1;ratioP1;P1;durP2;ratioP2;P2;SDS_P1;SDS_P2;PMS_P1;PMS_P2;Temp;Humidity;BMP_temperature;BMP_pressure;BME280_temperature;BME280_humidity;BME280_pressure;Samples;Min_cycle;Max_cycle;Signal;HPM_P1;HPM_P2
2021/10/20 00:01:52;;;;;;;1.88;1.50;;;;;;;;;;5071193;28;20025;-56
2021/10/20 00:04:17;;;;;;;2.58;1.60;;;;;;;;;;5071045;28;20025;-57
2021/10/20 00:06:43;;;;;;;1.73;1.52;;;;;;;;;;5069687;28;20023;-54
2021/10/20 00:09:08;;;;;;;1.52;0.93;;;;;;;;;;5071469;28;20515;-56
2021/10/20 00:11:33;;;;;;;5.75;2.10;;;;;;;;;;5069486;28;20055;-55
2021/10/20 00:13:58;;;;;;;3.17;1.40;;;;;;;;;;5069403;28;20546;-55
2021/10/20 00:16:24;;;;;;;1.38;1.27;;;;;;;;;;5071348;28;20376;-55
2021/10/20 00:18:49;;;;;;;1.63;0.90;;;;;;;;;;5070398;28;20023;-55
2021/10/20 00:21:15;;;;;;;1.92;1.23;;;;;;;;;;5071086;28;20078;-56
2021/10/20 00:23:41;;;;;;;2.30;1.00;;;;;;;;;;5070452;28;20074;-55
2021/10/20 00:26:06;;;;;;;1.00;0.90;;;;;;;;;;5068628;28;20045;-56
2021/10/20 00:28:31;;;;;;;0.88;0.60;;;;;;;;;;5069997;28;20074;-54
2021/10/20 00:30:56;;;;;;;4.72;1.40;;;;;;;;;;5071753;28;20102;-55
2021/10/20 00:33:21;;;;;;;1.83;0.80;;;;;;;;;;5070685;28;20203;-55
2021/10/20 00:35:47;;;;;;;1.27;1.10;;;;;;;;;;5070687;28;20040;-55
2021/10/20 00:38:12;;;;;;;1.17;1.08;;;;;;;;;;5071141;28;20477;-55
2021/10/20 00:40:37;;;;;;;1.33;1.10;;;;;;;;;;5071740;28;20487;-55
2021/10/20 00:43:02;;;;;;;1.30;1.20;;;;;;;;;;5070968;28;20400;-53
2021/10/20 00:45:28;;;;;;;1.50;1.30;;;;;;;;;;5066449;28;20469;-56
2021/10/20 00:47:53;;;;;;;1.38;1.05;;;;;;;;;;5066883;28;20064;-54
2021/10/20 00:50:18;;;;;;;0.98;0.88;;;;;;;;;;5068395;28;20016;-56
2021/10/20 00:52:43;;;;;;;1.20;1.08;;;;;;;;;;5068455;28;20021;-55
2021/10/20 00:55:10;;;;;;;1.48;1.13;;;;;;;;;;5069897;28;20024;-56
2021/10/20 00:57:35;;;;;;;1.65;1.15;;;;;;;;;;5066371;28;20048;-55
2021/10/20 01:00:02;;;;;;;1.88;1.10;;;;;;;;;;5070506;28;20122;-57
2021/10/20 01:02:27;;;;;;;1.58;0.73;;;;;;;;;;5069419;28;20020;-56
2021/10/20 01:04:52;;;;;;;1.30;1.20;;;;;;;;;;5071253;28;20115;-58
2021/10/20 01:07:18;;;;;;;0.95;0.70;;;;;;;;;;5074192;28;20024;-56
2021/10/20 01:09:44;;;;;;;1.60;0.80;;;;;;;;;;5074804;28;20035;-54
2021/10/20 01:12:10;;;;;;;1.67;1.00;;;;;;;;;;5073805;28;20074;-56
2021/10/20 01:14:36;;;;;;;1.00;0.90;;;;;;;;;;5074473;28;20024;-56
2021/10/20 01:17:01;;;;;;;1.10;1.00;;;;;;;;;;5074475;28;20380;-57
2021/10/20 01:19:26;;;;;;;2.08;1.15;;;;;;;;;;5073882;28;20304;-56
2021/10/20 01:21:52;;;;;;;1.42;1.02;;;;;;;;;;5073606;28;20132;-56
2021/10/20 01:24:18;;;;;;;1.55;0.80;;;;;;;;;;5073385;28;20047;-55
2021/10/20 01:26:43;;;;;;;1.20;0.90;;;;;;;;;;5071149;28;20068;-57
2021/10/20 01:29:08;;;;;;;1.52;0.82;;;;;;;;;;5073640;28;20059;-55
2021/10/20 01:31:34;;;;;;;1.40;1.02;;;;;;;;;;5074146;28;20039;-57
2021/10/20 01:33:59;;;;;;;1.55;1.15;;;;;;;;;;5071907;28;20033;-55
2021/10/20 01:36:24;;;;;;;0.73;0.63;;;;;;;;;;5072131;28;20029;-56
2021/10/20 01:38:51;;;;;;;1.40;0.63;;;;;;;;;;5069256;28;20039;-54
2021/10/20 01:41:17;;;;;;;1.85;1.15;;;;;;;;;;5073796;28;20024;-54
2021/10/20 01:43:43;;;;;;;1.42;0.63;;;;;;;;;;5072870;28;20384;-56
2021/10/20 01:46:09;;;;;;;1.35;0.70;;;;;;;;;;5074391;28;20028;-56
2021/10/20 01:48:34;;;;;;;1.20;0.82;;;;;;;;;;5073388;28;20033;-53
2021/10/20 01:51:00;;;;;;;1.52;1.05;;;;;;;;;;5072982;28;20033;-54
2021/10/20 01:53:25;;;;;;;1.25;0.73;;;;;;;;;;5072784;28;20031;-55
2021/10/20 01:55:51;;;;;;;1.02;0.95;;;;;;;;;;5071122;28;20540;-54
2021/10/20 01:58:17;;;;;;;1.13;0.80;;;;;;;;;;5074840;28;20017;-55
2021/10/20 02:00:42;;;;;;;0.95;0.82;;;;;;;;;;5070209;28;20073;-55
2021/10/20 02:03:07;;;;;;;1.88;0.70;;;;;;;;;;5070828;28;20024;-56
2021/10/20 02:05:32;;;;;;;0.80;0.60;;;;;;;;;;5072883;28;20032;-56
2021/10/20 02:07:57;;;;;;;1.25;0.90;;;;;;;;;;5074144;28;20078;-55
2021/10/20 02:10:23;;;;;;;1.52;1.10;;;;;;;;;;5072935;28;20082;-56
2021/10/20 02:12:48;;;;;;;2.05;0.93;;;;;;;;;;5069796;28;20055;-54
2021/10/20 02:15:13;;;;;;;1.25;0.98;;;;;;;;;;5072847;28;20033;-53
2021/10/20 02:17:38;;;;;;;1.25;1.02;;;;;;;;;;5072346;28;20028;-55
2021/10/20 02:20:08;;;;;;;2.97;1.25;;;;;;;;;;5073379;28;20025;-56
2021/10/20 02:22:33;;;;;;;1.67;0.98;;;;;;;;;;5072140;28;20033;-51
2021/10/20 02:24:58;;;;;;;1.15;0.77;;;;;;;;;;5073344;28;20039;-56
2021/10/20 02:27:24;;;;;;;1.27;0.80;;;;;;;;;;5068856;28;20055;-57
2021/10/20 02:29:49;;;;;;;1.08;0.88;;;;;;;;;;5073201;28;20036;-56
2021/10/20 02:32:15;;;;;;;1.73;1.10;;;;;;;;;;5072585;28;20082;-56
2021/10/20 02:34:40;;;;;;;1.80;0.90;;;;;;;;;;5072392;28;20340;-56
2021/10/20 02:37:06;;;;;;;0.88;0.88;;;;;;;;;;5072549;28;20059;-57
2021/10/20 02:39:31;;;;;;;1.80;0.80;;;;;;;;;;5073439;28;20047;-55
2021/10/20 02:41:56;;;;;;;1.83;0.80;;;;;;;;;;5071993;28;20052;-56
2021/10/20 02:44:21;;;;;;;1.40;0.73;;;;;;;;;;5072586;28;20123;-55
2021/10/20 02:46:46;;;;;;;1.13;0.70;;;;;;;;;;5073487;28;20036;-55
2021/10/20 02:49:12;;;;;;;0.82;0.70;;;;;;;;;;5072487;28;20032;-53
2021/10/20 02:51:37;;;;;;;2.25;0.77;;;;;;;;;;5070994;28;20040;-55
2021/10/20 02:54:02;;;;;;;2.35;0.95;;;;;;;;;;5071615;28;20028;-54
2021/10/20 02:56:27;;;;;;;0.80;0.60;;;;;;;;;;5068998;28;20037;-57
2021/10/20 02:58:53;;;;;;;1.60;1.50;;;;;;;;;;5078063;28;20028;-56
2021/10/20 03:01:19;;;;;;;3.10;0.95;;;;;;;;;;5071920;28;20028;-56
2021/10/20 03:03:45;;;;;;;1.33;0.60;;;;;;;;;;5071870;28;20548;-55
2021/10/20 03:06:11;;;;;;;2.90;0.90;;;;;;;;;;5077634;28;20074;-55
2021/10/20 03:08:36;;;;;;;1.38;0.80;;;;;;;;;;5072546;28;20028;-56
2021/10/20 03:11:01;;;;;;;2.05;0.90;;;;;;;;;;5072249;28;20108;-55
2021/10/20 03:13:27;;;;;;;0.65;0.50;;;;;;;;;;5083789;28;20043;-57
2021/10/20 03:15:52;;;;;;;0.95;0.70;;;;;;;;;;5075861;28;20066;-56
2021/10/20 03:18:17;;;;;;;1.38;0.60;;;;;;;;;;5072160;28;20074;-56
2021/10/20 03:20:42;;;;;;;0.98;0.65;;;;;;;;;;5071898;28;20024;-56
2021/10/20 03:23:07;;;;;;;0.85;0.57;;;;;;;;;;5071709;28;20361;-55
2021/10/20 03:25:33;;;;;;;1.83;0.77;;;;;;;;;;5071052;28;20557;-56
2021/10/20 03:27:58;;;;;;;1.17;0.70;;;;;;;;;;5068650;28;20059;-56
2021/10/20 03:30:23;;;;;;;0.98;0.70;;;;;;;;;;5071875;28;20415;-56
2021/10/20 03:32:49;;;;;;;0.80;0.80;;;;;;;;;;5071612;28;20028;-56
2021/10/20 03:35:17;;;;;;;0.77;0.55;;;;;;;;;;5071157;28;20020;-54
2021/10/20 03:37:42;;;;;;;1.17;0.60;;;;;;;;;;5069272;28;20047;-51
2021/10/20 03:40:08;;;;;;;3.20;0.73;;;;;;;;;;5070378;28;20388;-55
2021/10/20 03:42:33;;;;;;;0.73;0.50;;;;;;;;;;5071490;28;20103;-56
2021/10/20 03:44:58;;;;;;;0.85;0.50;;;;;;;;;;5071499;28;20078;-55
2021/10/20 03:47:24;;;;;;;1.40;0.70;;;;;;;;;;5081594;28;20388;-54
2021/10/20 03:49:49;;;;;;;0.90;0.55;;;;;;;;;;5072336;28;20036;-54
2021/10/20 03:52:15;;;;;;;1.67;0.70;;;;;;;;;;5071295;28;20422;-55
2021/10/20 03:54:40;;;;;;;0.70;0.60;;;;;;;;;;5071813;28;20060;-56
2021/10/20 03:57:05;;;;;;;1.85;0.60;;;;;;;;;;5067820;28;20034;-55
2021/10/20 03:59:30;;;;;;;0.90;0.60;;;;;;;;;;5071685;28;20051;-54
2021/10/20 04:01:56;;;;;;;1.60;1.23;;;;;;;;;;5070250;28;20016;-55
2021/10/20 04:04:21;;;;;;;2.10;0.70;;;;;;;;;;5071700;28;20412;-56
2021/10/20 04:06:46;;;;;;;0.70;0.60;;;;;;;;;;5071940;28;20465;-56
2021/10/20 04:09:11;;;;;;;0.70;0.50;;;;;;;;;;5070932;28;20036;-56
2021/10/20 04:11:37;;;;;;;0.60;0.40;;;;;;;;;;5070708;28;20028;-55
2021/10/20 04:14:02;;;;;;;1.80;0.50;;;;;;;;;;5071236;28;20021;-54
2021/10/20 04:16:27;;;;;;;1.05;0.70;;;;;;;;;;5071483;28;20121;-56
2021/10/20 04:18:52;;;;;;;1.75;0.50;;;;;;;;;;5071285;28;20012;-56
2021/10/20 04:21:18;;;;;;;2.05;0.60;;;;;;;;;;5069709;28;20039;-55
2021/10/20 04:23:43;;;;;;;1.25;0.75;;;;;;;;;;5071078;28;20093;-54
2021/10/20 04:26:08;;;;;;;0.60;0.60;;;;;;;;;;5068584;28;20060;-55
2021/10/20 04:28:33;;;;;;;0.55;0.50;;;;;;;;;;5070356;28;20033;-55
2021/10/20 04:30:58;;;;;;;1.88;0.57;;;;;;;;;;5068394;28;20028;-54
2021/10/20 04:33:24;;;;;;;0.57;0.40;;;;;;;;;;5071202;28;20041;-55
2021/10/20 04:35:49;;;;;;;1.17;0.40;;;;;;;;;;5071189;28;20107;-55
2021/10/20 04:38:14;;;;;;;0.75;0.32;;;;;;;;;;5071362;28;20097;-55
2021/10/20 04:40:39;;;;;;;0.70;0.57;;;;;;;;;;5071957;28;20067;-56
2021/10/20 04:43:05;;;;;;;0.95;0.30;;;;;;;;;;5074282;28;20032;-56
2021/10/20 04:45:31;;;;;;;1.30;0.40;;;;;;;;;;5074564;28;20020;-56
2021/10/20 04:47:56;;;;;;;0.68;0.40;;;;;;;;;;5074938;28;20024;-55
2021/10/20 04:50:21;;;;;;;0.88;0.60;;;;;;;;;;5075256;28;20111;-56
2021/10/20 04:52:46;;;;;;;1.33;0.32;;;;;;;;;;5074351;28;20024;-55
2021/10/20 04:55:11;;;;;;;1.75;0.40;;;;;;;;;;5074766;28;20534;-57
2021/10/20 04:57:37;;;;;;;0.75;0.50;;;;;;;;;;5071984;28;20354;-55
2021/10/20 05:00:04;;;;;;;1.15;0.43;;;;;;;;;;5074760;28;20020;-57
2021/10/20 05:02:35;;;;;;;1.23;0.35;;;;;;;;;;5073936;28;20078;-55
2021/10/20 05:05:00;;;;;;;1.15;0.40;;;;;;;;;;5074730;28;20477;-56
2021/10/20 05:07:25;;;;;;;0.50;0.50;;;;;;;;;;5074979;28;20032;-56
2021/10/20 05:09:50;;;;;;;0.57;0.50;;;;;;;;;;5074844;28;20036;-56
2021/10/20 05:12:16;;;;;;;0.88;0.50;;;;;;;;;;5072692;28;20365;-55
2021/10/20 05:14:41;;;;;;;1.38;0.52;;;;;;;;;;5073091;28;20027;-54
2021/10/20 05:17:06;;;;;;;0.70;0.50;;;;;;;;;;5074547;28;20033;-56
2021/10/20 05:19:31;;;;;;;0.82;0.40;;;;;;;;;;5074333;28;20036;-57
2021/10/20 05:21:56;;;;;;;1.00;0.50;;;;;;;;;;5072078;28;20042;-55
2021/10/20 05:24:22;;;;;;;1.00;0.43;;;;;;;;;;5074395;28;20037;-55
2021/10/20 05:26:50;;;;;;;1.15;0.50;;;;;;;;;;5071357;28;20294;-55
2021/10/20 05:29:15;;;;;;;0.85;0.50;;;;;;;;;;5075665;28;20016;-55
2021/10/20 05:31:40;;;;;;;0.80;0.40;;;;;;;;;;5074951;28;20027;-56
2021/10/20 05:34:06;;;;;;;0.40;0.23;;;;;;;;;;5073727;28;20069;-55
2021/10/20 05:36:31;;;;;;;0.80;0.40;;;;;;;;;;5072875;28;20643;-56
2021/10/20 05:38:56;;;;;;;0.60;0.45;;;;;;;;;;5072966;28;20255;-54
2021/10/20 05:41:21;;;;;;;1.80;0.60;;;;;;;;;;5073293;28;20027;-54
2021/10/20 05:43:47;;;;;;;1.85;0.50;;;;;;;;;;5074240;28;20068;-57
2021/10/20 05:46:12;;;;;;;1.08;0.60;;;;;;;;;;5074375;28;20107;-57
2021/10/20 05:48:37;;;;;;;1.35;0.40;;;;;;;;;;5074129;28;20024;-56
2021/10/20 05:51:03;;;;;;;0.73;0.40;;;;;;;;;;5073135;28;20039;-54
2021/10/20 05:53:28;;;;;;;1.17;0.82;;;;;;;;;;5070483;28;20068;-56
2021/10/20 05:55:53;;;;;;;1.80;1.10;;;;;;;;;;5072593;28;20586;-56
2021/10/20 05:58:18;;;;;;;0.93;0.70;;;;;;;;;;5072648;28;20370;-55
2021/10/20 06:00:44;;;;;;;0.80;0.45;;;;;;;;;;5073357;28;20525;-56
2021/10/20 06:03:09;;;;;;;3.03;0.80;;;;;;;;;;5072024;28;20085;-56
2021/10/20 06:05:36;;;;;;;0.82;0.63;;;;;;;;;;5073504;28;20107;-55
2021/10/20 06:08:01;;;;;;;3.22;0.60;;;;;;;;;;5073741;28;20381;-54
2021/10/20 06:10:26;;;;;;;0.60;0.52;;;;;;;;;;5071907;28;20029;-56
2021/10/20 06:12:51;;;;;;;0.70;0.40;;;;;;;;;;5072209;28;20091;-56
2021/10/20 06:15:21;;;;;;;1.85;0.50;;;;;;;;;;5072818;28;20028;-55
2021/10/20 06:17:46;;;;;;;5.03;0.60;;;;;;;;;;5073530;28;20016;-56
2021/10/20 06:20:12;;;;;;;0.80;0.30;;;;;;;;;;5073670;28;20021;-55
2021/10/20 06:22:40;;;;;;;0.70;0.40;;;;;;;;;;5072331;28;20039;-55
2021/10/20 06:25:06;;;;;;;2.15;0.60;;;;;;;;;;5072235;28;20025;-56
2021/10/20 06:27:31;;;;;;;1.15;0.47;;;;;;;;;;5069595;28;20462;-55
2021/10/20 06:29:56;;;;;;;0.70;0.50;;;;;;;;;;5073364;28;20024;-55
2021/10/20 06:32:21;;;;;;;1.63;0.77;;;;;;;;;;5070468;28;20496;-56
2021/10/20 06:34:46;;;;;;;1.02;0.50;;;;;;;;;;5071166;28;20322;-56
2021/10/20 06:37:12;;;;;;;1.63;0.40;;;;;;;;;;5072675;28;20035;-56
2021/10/20 06:39:37;;;;;;;0.57;0.55;;;;;;;;;;5072962;28;20082;-56
2021/10/20 06:42:02;;;;;;;0.60;0.50;;;;;;;;;;5072192;28;20032;-56
2021/10/20 06:44:28;;;;;;;1.10;0.65;;;;;;;;;;5072449;28;20102;-54
2021/10/20 06:46:53;;;;;;;1.45;0.50;;;;;;;;;;5072632;28;20043;-57
2021/10/20 06:49:19;;;;;;;0.80;0.40;;;;;;;;;;5072893;28;20020;-56
2021/10/20 06:51:44;;;;;;;0.60;0.40;;;;;;;;;;5072179;28;20024;-55
2021/10/20 06:54:17;;;;;;;0.93;0.40;;;;;;;;;;5072263;28;20090;-56
2021/10/20 06:56:42;;;;;;;1.33;0.50;;;;;;;;;;5067761;28;20032;-56
2021/10/20 06:59:07;;;;;;;2.50;0.50;;;;;;;;;;5072065;28;20024;-54
2021/10/20 07:01:32;;;;;;;0.85;0.50;;;;;;;;;;5071710;28;20408;-56
2021/10/20 07:03:57;;;;;;;0.77;0.50;;;;;;;;;;5070668;28;20028;-55
2021/10/20 07:06:27;;;;;;;1.30;0.40;;;;;;;;;;5070140;28;20415;-57
2021/10/20 07:08:52;;;;;;;1.85;0.47;;;;;;;;;;5072447;28;20114;-56
2021/10/20 07:11:17;;;;;;;1.63;0.88;;;;;;;;;;5082056;28;20107;-55
2021/10/20 07:13:42;;;;;;;0.70;0.50;;;;;;;;;;5073290;28;20077;-57
2021/10/20 07:16:07;;;;;;;0.60;0.30;;;;;;;;;;5079878;28;20111;-56
2021/10/20 07:18:33;;;;;;;1.27;0.47;;;;;;;;;;5071895;28;20259;-55
2021/10/20 07:20:58;;;;;;;1.08;0.32;;;;;;;;;;5066878;28;20035;-57
2021/10/20 07:23:24;;;;;;;0.60;0.30;;;;;;;;;;5064146;28;20025;-55
2021/10/20 07:25:49;;;;;;;2.25;0.30;;;;;;;;;;5068048;28;20466;-54
2021/10/20 07:28:14;;;;;;;0.68;0.30;;;;;;;;;;5068292;28;20396;-53
2021/10/20 07:30:41;;;;;;;2.00;0.50;;;;;;;;;;5069154;28;20044;-55
2021/10/20 07:33:06;;;;;;;1.20;0.30;;;;;;;;;;5071597;28;20271;-56
2021/10/20 07:35:31;;;;;;;1.42;0.30;;;;;;;;;;5071289;28;20043;-55
2021/10/20 07:37:57;;;;;;;0.40;0.30;;;;;;;;;;5071595;28;20026;-56
2021/10/20 07:40:22;;;;;;;1.17;0.50;;;;;;;;;;5071885;28;20044;-55
2021/10/20 07:42:47;;;;;;;1.05;0.40;;;;;;;;;;5069913;28;20115;-53
2021/10/20 07:45:15;;;;;;;1.13;0.40;;;;;;;;;;5071188;28;20048;-54
2021/10/20 07:47:40;;;;;;;1.58;0.60;;;;;;;;;;5052006;28;20027;-56
2021/10/20 07:50:06;;;;;;;1.35;0.40;;;;;;;;;;5065460;28;20040;-54
2021/10/20 07:52:33;;;;;;;1.15;0.40;;;;;;;;;;5070957;28;20103;-55
2021/10/20 07:54:58;;;;;;;0.60;0.40;;;;;;;;;;5071354;28;20484;-56
2021/10/20 07:57:23;;;;;;;1.95;0.47;;;;;;;;;;5065883;28;20031;-57
2021/10/20 07:59:49;;;;;;;1.55;0.40;;;;;;;;;;5068627;28;20031;-56
2021/10/20 08:02:14;;;;;;;0.95;0.45;;;;;;;;;;5070871;28;20040;-56
2021/10/20 08:04:39;;;;;;;1.58;0.50;;;;;;;;;;5070246;28;20514;-57
2021/10/20 08:07:05;;;;;;;0.50;0.40;;;;;;;;;;5070951;28;20031;-57
2021/10/20 08:09:30;;;;;;;0.55;0.30;;;;;;;;;;5070801;28;20073;-62
2021/10/20 08:11:55;;;;;;;0.95;0.40;;;;;;;;;;5070723;28;20075;-56
2021/10/20 08:14:20;;;;;;;0.73;0.50;;;;;;;;;;5070678;28;20435;-53
2021/10/20 08:16:46;;;;;;;1.25;0.45;;;;;;;;;;5074191;28;20431;-55
2021/10/20 08:19:11;;;;;;;0.60;0.40;;;;;;;;;;5074630;28;20381;-56
2021/10/20 08:21:36;;;;;;;2.47;0.67;;;;;;;;;;5073956;28;20291;-56
2021/10/20 08:24:01;;;;;;;2.08;0.43;;;;;;;;;;5074435;28;20710;-57
2021/10/20 08:26:26;;;;;;;1.25;0.47;;;;;;;;;;5070470;28;20052;-54
2021/10/20 08:28:52;;;;;;;0.70;0.40;;;;;;;;;;5073831;28;20032;-54
2021/10/20 08:31:17;;;;;;;1.85;0.60;;;;;;;;;;5075148;28;20029;-57
2021/10/20 08:33:42;;;;;;;0.90;0.55;;;;;;;;;;5074253;28;20025;-55
2021/10/20 08:36:08;;;;;;;0.90;0.47;;;;;;;;;;5074808;28;20028;-56
2021/10/20 08:38:33;;;;;;;3.15;0.50;;;;;;;;;;5074385;28;20099;-56
2021/10/20 08:41:00;;;;;;;1.35;0.50;;;;;;;;;;5075194;28;20102;-55
2021/10/20 08:43:25;;;;;;;0.60;0.40;;;;;;;;;;5073737;28;20009;-55
2021/10/20 08:45:51;;;;;;;0.93;0.50;;;;;;;;;;5074630;28;20016;-53
2021/10/20 08:48:19;;;;;;;0.60;0.40;;;;;;;;;;5076137;28;20600;-55
2021/10/20 08:50:47;;;;;;;1.05;0.43;;;;;;;;;;5074941;28;20126;-53
2021/10/20 08:53:13;;;;;;;1.08;0.45;;;;;;;;;;5074375;28;20465;-56
2021/10/20 08:55:38;;;;;;;1.17;0.40;;;;;;;;;;5073569;28;20032;-50
2021/10/20 08:58:03;;;;;;;0.57;0.40;;;;;;;;;;5072315;28;20032;-56
2021/10/20 09:00:28;;;;;;;0.90;0.40;;;;;;;;;;5074470;28;20376;-54
2021/10/20 09:02:54;;;;;;;1.30;0.50;;;;;;;;;;5074285;28;20108;-55
2021/10/20 09:05:23;;;;;;;1.75;0.50;;;;;;;;;;5072678;28;20124;-52
2021/10/20 09:07:50;;;;;;;0.80;0.40;;;;;;;;;;5074908;28;20044;-56
2021/10/20 09:10:16;;;;;;;1.00;0.43;;;;;;;;;;5074714;28;20524;-56
2021/10/20 09:12:42;;;;;;;0.65;0.40;;;;;;;;;;5073946;28;20076;-55
2021/10/20 09:15:20;;;;;;;1.15;0.50;;;;;;;;;;5074076;28;20434;-55
2021/10/20 09:17:48;;;;;;;1.98;0.57;;;;;;;;;;5074920;28;20024;-54
2021/10/20 09:20:15;;;;;;;2.35;0.52;;;;;;;;;;5073545;28;20013;-55
2021/10/20 09:22:50;;;;;;;1.48;0.43;;;;;;;;;;5073616;28;20043;-57
2021/10/20 09:25:17;;;;;;;1.40;0.43;;;;;;;;;;5073749;28;20071;-54
2021/10/20 09:27:43;;;;;;;0.50;0.40;;;;;;;;;;5072736;28;20049;-53
2021/10/20 09:30:09;;;;;;;0.55;0.40;;;;;;;;;;5092291;28;20023;-57
2021/10/20 09:32:34;;;;;;;0.80;0.40;;;;;;;;;;5072781;28;20400;-56
2021/10/20 09:34:59;;;;;;;1.60;0.38;;;;;;;;;;5074176;28;20021;-56
2021/10/20 09:37:26;;;;;;;1.63;0.80;;;;;;;;;;5074032;28;20036;-54
2021/10/20 09:39:51;;;;;;;1.08;0.50;;;;;;;;;;5074432;28;20293;-55
2021/10/20 09:42:18;;;;;;;2.73;0.50;;;;;;;;;;5073570;28;20013;-53
2021/10/20 09:44:47;;;;;;;2.30;0.55;;;;;;;;;;5073389;28;20277;-55
2021/10/20 09:47:13;;;;;;;3.38;0.50;;;;;;;;;;5073644;28;20032;-51
2021/10/20 09:49:45;;;;;;;0.77;0.22;;;;;;;;;;5072029;28;20097;-55
2021/10/20 09:52:10;;;;;;;1.15;0.50;;;;;;;;;;5053808;28;20025;-52
2021/10/20 09:54:36;;;;;;;1.20;0.55;;;;;;;;;;5073516;28;20040;-55
2021/10/20 09:57:02;;;;;;;1.52;0.57;;;;;;;;;;5070866;28;20028;-52
2021/10/20 09:59:28;;;;;;;1.05;0.40;;;;;;;;;;5073861;28;20028;-53
2021/10/20 10:01:53;;;;;;;1.05;0.40;;;;;;;;;;5073560;28;20025;-53
2021/10/20 10:04:19;;;;;;;1.50;0.30;;;;;;;;;;5073091;28;20035;-58
2021/10/20 10:06:45;;;;;;;2.28;0.57;;;;;;;;;;5073547;28;20024;-55
2021/10/20 10:09:10;;;;;;;1.20;0.43;;;;;;;;;;5073493;28;20036;-57
2021/10/20 10:11:37;;;;;;;1.98;0.50;;;;;;;;;;5073664;28;20012;-56
2021/10/20 10:14:04;;;;;;;1.48;0.50;;;;;;;;;;5072313;28;20077;-53
2021/10/20 10:16:31;;;;;;;1.55;0.68;;;;;;;;;;5073249;28;20017;-57
2021/10/20 10:18:57;;;;;;;1.70;0.57;;;;;;;;;;5072534;28;20020;-57
2021/10/20 10:21:32;;;;;;;1.73;0.80;;;;;;;;;;5065902;28;20021;-59
2021/10/20 10:23:57;;;;;;;1.60;0.80;;;;;;;;;;5083574;28;20090;-58
2021/10/20 10:26:23;;;;;;;0.50;0.40;;;;;;;;;;5068201;28;20202;-58
2021/10/20 10:29:04;;;;;;;1.05;0.52;;;;;;;;;;5070754;28;20020;-57
2021/10/20 10:31:33;;;;;;;1.75;0.88;;;;;;;;;;5072601;28;20024;-57
2021/10/20 10:33:58;;;;;;;0.60;0.35;;;;;;;;;;5072172;28;20029;-57
2021/10/20 10:36:24;;;;;;;1.20;0.60;;;;;;;;;;5072098;28;20028;-58
2021/10/20 10:38:50;;;;;;;2.03;0.50;;;;;;;;;;5087128;28;20259;-58
2021/10/20 10:41:23;;;;;;;1.83;0.55;;;;;;;;;;5072123;28;20506;-55
2021/10/20 10:44:00;;;;;;;0.95;0.85;;;;;;;;;;5065356;28;20024;-59
2021/10/20 10:46:28;;;;;;;3.03;0.60;;;;;;;;;;5072566;28;20035;-54
2021/10/20 10:48:53;;;;;;;0.80;0.80;;;;;;;;;;5072044;28;20033;-57
2021/10/20 10:51:20;;;;;;;1.85;0.60;;;;;;;;;;5071979;28;20024;-58
2021/10/20 10:53:52;;;;;;;0.80;0.43;;;;;;;;;;5071637;28;20792;-57
2021/10/20 10:56:18;;;;;;;1.50;0.70;;;;;;;;;;5067628;28;20484;-57
2021/10/20 10:58:59;;;;;;;1.20;0.60;;;;;;;;;;5070572;28;20078;-59
2021/10/20 11:01:43;;;;;;;0.75;0.38;;;;;;;;;;5071680;28;20461;-59
2021/10/20 11:04:15;;;;;;;1.85;0.60;;;;;;;;;;5072511;28;20028;-58
2021/10/20 11:06:41;;;;;;;0.95;0.57;;;;;;;;;;5071821;28;20101;-58
2021/10/20 11:09:07;;;;;;;2.10;0.50;;;;;;;;;;5071447;28;20044;-58
2021/10/20 11:11:32;;;;;;;0.88;0.65;;;;;;;;;;5072264;28;20028;-58
2021/10/20 11:13:59;;;;;;;1.00;0.50;;;;;;;;;;5070948;28;20038;-57
2021/10/20 11:16:25;;;;;;;1.58;0.50;;;;;;;;;;5080145;28;20256;-58
2021/10/20 11:18:51;;;;;;;1.70;0.60;;;;;;;;;;5067519;28;20103;-58
2021/10/20 11:21:19;;;;;;;1.90;0.73;;;;;;;;;;5071518;28;20255;-58
2021/10/20 11:23:44;;;;;;;2.63;0.63;;;;;;;;;;5067931;28;20036;-57
2021/10/20 11:26:10;;;;;;;1.55;0.55;;;;;;;;;;5056371;28;21288;-57
2021/10/20 11:28:36;;;;;;;2.85;0.70;;;;;;;;;;5057815;28;20012;-58
2021/10/20 11:31:05;;;;;;;1.77;0.70;;;;;;;;;;5071495;28;20107;-58
2021/10/20 11:33:30;;;;;;;2.35;0.50;;;;;;;;;;5071581;28;20028;-57
2021/10/20 11:35:56;;;;;;;0.50;0.40;;;;;;;;;;5070154;28;20040;-57
2021/10/20 11:38:21;;;;;;;2.35;0.57;;;;;;;;;;5071729;28;20278;-58
2021/10/20 11:40:48;;;;;;;4.60;0.60;;;;;;;;;;5071640;28;20019;-57
2021/10/20 11:43:15;;;;;;;0.80;0.63;;;;;;;;;;5070740;28;20028;-58
2021/10/20 11:45:40;;;;;;;1.58;0.50;;;;;;;;;;5071674;28;20048;-57
2021/10/20 11:48:06;;;;;;;2.92;0.70;;;;;;;;;;5071376;28;20503;-59
2021/10/20 11:50:32;;;;;;;0.77;0.43;;;;;;;;;;5071133;28;20035;-58
2021/10/20 11:52:59;;;;;;;2.35;0.68;;;;;;;;;;5061557;28;20306;-57
2021/10/20 11:55:24;;;;;;;1.33;0.47;;;;;;;;;;5071324;28;20107;-58
2021/10/20 11:57:49;;;;;;;2.35;0.60;;;;;;;;;;5058661;28;20198;-57
2021/10/20 12:00:14;;;;;;;0.80;0.70;;;;;;;;;;5070024;28;20122;-57
2021/10/20 12:02:40;;;;;;;0.75;0.50;;;;;;;;;;5071019;28;20358;-59
2021/10/20 12:05:05;;;;;;;1.73;0.60;;;;;;;;;;5070983;28;20489;-58
2021/10/20 12:07:31;;;;;;;2.08;0.68;;;;;;;;;;5069619;28;20321;-57
2021/10/20 12:09:57;;;;;;;1.48;0.50;;;;;;;;;;5071305;28;20420;-55
2021/10/20 12:12:23;;;;;;;2.45;1.00;;;;;;;;;;5070626;28;20032;-58
2021/10/20 12:14:48;;;;;;;1.92;0.80;;;;;;;;;;5070391;28;20085;-53
2021/10/20 12:17:14;;;;;;;1.30;0.52;;;;;;;;;;5069669;28;20371;-57
2021/10/20 12:19:40;;;;;;;2.45;0.85;;;;;;;;;;5071112;28;20021;-57
2021/10/20 12:22:07;;;;;;;1.02;0.50;;;;;;;;;;5070069;28;20540;-56
2021/10/20 12:24:37;;;;;;;2.45;0.70;;;;;;;;;;5070756;28;20055;-57
2021/10/20 12:27:09;;;;;;;1.13;0.70;;;;;;;;;;5058905;28;20105;-58
2021/10/20 12:29:41;;;;;;;3.95;0.95;;;;;;;;;;5066146;28;20038;-57
2021/10/20 12:32:08;;;;;;;0.90;0.80;;;;;;;;;;5070805;28;20532;-58
2021/10/20 12:34:33;;;;;;;1.25;0.60;;;;;;;;;;5070223;28;20115;-56
2021/10/20 12:36:59;;;;;;;2.00;0.55;;;;;;;;;;5070855;28;20107;-57
2021/10/20 12:39:25;;;;;;;1.73;0.70;;;;;;;;;;5071332;28;20029;-58
2021/10/20 12:41:50;;;;;;;1.58;1.05;;;;;;;;;;5068880;28;20021;-57
2021/10/20 12:44:16;;;;;;;0.77;0.60;;;;;;;;;;5067084;28;20047;-57
2021/10/20 12:46:44;;;;;;;1.70;0.75;;;;;;;;;;5070596;28;20440;-57
2021/10/20 12:49:12;;;;;;;0.77;0.70;;;;;;;;;;5068107;28;20028;-57
2021/10/20 12:51:39;;;;;;;1.58;0.47;;;;;;;;;;5070030;28;20017;-55
2021/10/20 12:54:05;;;;;;;2.15;1.00;;;;;;;;;;5064998;28;20020;-55
2021/10/20 12:56:31;;;;;;;1.15;0.70;;;;;;;;;;5066305;28;20021;-56
2021/10/20 12:59:15;;;;;;;3.72;1.02;;;;;;;;;;5076119;28;20022;-56
2021/10/20 13:01:40;;;;;;;1.65;0.50;;;;;;;;;;5071498;28;20017;-56
2021/10/20 13:04:07;;;;;;;2.42;1.05;;;;;;;;;;5074317;28;20028;-57
2021/10/20 13:06:32;;;;;;;2.75;0.63;;;;;;;;;;5073949;28;20035;-52
2021/10/20 13:08:57;;;;;;;1.48;0.80;;;;;;;;;;5073861;28;20393;-54
2021/10/20 13:11:23;;;;;;;0.70;0.70;;;;;;;;;;5073703;28;20025;-55
2021/10/20 13:13:48;;;;;;;2.17;0.67;;;;;;;;;;5073937;28;20695;-55
2021/10/20 13:16:13;;;;;;;2.67;0.60;;;;;;;;;;5074411;28;20263;-56
2021/10/20 13:18:38;;;;;;;0.90;0.70;;;;;;;;;;5068727;28;20031;-56
2021/10/20 13:21:04;;;;;;;1.65;0.65;;;;;;;;;;5070416;28;20505;-54
2021/10/20 13:23:34;;;;;;;1.13;0.50;;;;;;;;;;5065101;28;20030;-55
2021/10/20 13:25:59;;;;;;;1.35;0.80;;;;;;;;;;5064129;28;20051;-56
2021/10/20 13:28:25;;;;;;;2.25;0.77;;;;;;;;;;5066641;28;20453;-56
2021/10/20 13:30:50;;;;;;;0.95;0.68;;;;;;;;;;5071951;28;20043;-55
2021/10/20 13:33:16;;;;;;;1.40;0.83;;;;;;;;;;5070794;28;20025;-56
2021/10/20 13:35:41;;;;;;;2.45;0.77;;;;;;;;;;5070073;28;20283;-56
2021/10/20 13:38:08;;;;;;;0.82;0.65;;;;;;;;;;5072636;28;20016;-57
2021/10/20 13:40:35;;;;;;;2.05;0.55;;;;;;;;;;5068184;28;20029;-57
2021/10/20 13:43:00;;;;;;;1.17;0.77;;;;;;;;;;5069475;28;20481;-57
2021/10/20 13:45:25;;;;;;;1.45;0.55;;;;;;;;;;5060064;28;20174;-55
2021/10/20 13:47:50;;;;;;;1.20;0.63;;;;;;;;;;5071925;28;20036;-57
2021/10/20 13:50:15;;;;;;;1.38;0.73;;;;;;;;;;5065653;28;20021;-57
2021/10/20 13:52:43;;;;;;;1.90;1.13;;;;;;;;;;5071000;28;20032;-56
2021/10/20 13:55:09;;;;;;;1.38;0.85;;;;;;;;;;5072019;28;20283;-57
2021/10/20 13:57:34;;;;;;;1.40;0.80;;;;;;;;;;5067452;28;20039;-56
2021/10/20 14:00:01;;;;;;;0.70;0.40;;;;;;;;;;5072228;28;20483;-56
2021/10/20 14:02:26;;;;;;;6.85;0.80;;;;;;;;;;5061343;28;20029;-56
2021/10/20 14:04:54;;;;;;;2.53;0.50;;;;;;;;;;5070716;28;20021;-57
2021/10/20 14:07:19;;;;;;;0.60;0.50;;;;;;;;;;5072306;28;20267;-57
2021/10/20 14:09:44;;;;;;;1.23;0.53;;;;;;;;;;5064823;28;20548;-56
2021/10/20 14:12:10;;;;;;;3.17;0.65;;;;;;;;;;5071617;28;20269;-53
2021/10/20 14:14:35;;;;;;;2.05;0.50;;;;;;;;;;5067590;28;20225;-56
2021/10/20 14:17:01;;;;;;;2.35;0.50;;;;;;;;;;5072597;28;20008;-57
2021/10/20 14:19:26;;;;;;;1.75;0.43;;;;;;;;;;5071358;28;20075;-55
2021/10/20 14:21:51;;;;;;;0.60;0.50;;;;;;;;;;5071585;28;20052;-56
2021/10/20 14:24:17;;;;;;;0.60;0.50;;;;;;;;;;5072048;28;20608;-54
2021/10/20 14:26:42;;;;;;;1.77;0.60;;;;;;;;;;5057634;28;20052;-57
2021/10/20 14:29:07;;;;;;;0.93;0.60;;;;;;;;;;5062232;28;20274;-57
2021/10/20 14:31:38;;;;;;;0.63;0.50;;;;;;;;;;5071476;28;20473;-55
2021/10/20 14:34:04;;;;;;;0.98;0.50;;;;;;;;;;5068693;28;20492;-56
2021/10/20 14:36:32;;;;;;;2.97;0.98;;;;;;;;;;5071408;28;20040;-55